sensor_id;sensor_type;location;lat;lon;timestamp;P1;durP1;ratioP1;P2;durP2;ratioP2
76115;SDS011;64847;45.778;12.802;2024-01-30T00:00:35;24.50;;;19.73;;
76115;SDS011;64847;45.778;12.802;2024-01-30T00:03:00;25.93;;;20.87;;
76115;SDS011;64847;45.778;12.802;2024-01-30T00:05:26;22.30;;;19.33;;
76115;SDS011;64847;45.778;12.802;2024-01-30T00:07:51;25.33;;;21.33;;
76115;SDS011;64847;45.778;12.802;2024-01-30T00:10:17;22.80;;;20.33;;
76115;SDS011;64847;45.778;12.802;2024-01-30T00:12:42;22.40;;;19.73;;
76115;SDS011;64847;45.778;12.802;2024-01-30T00:15:08;20.90;;;18.23;;
76115;SDS011;64847;45.778;12.802;2024-01-30T00:17:35;20.10;;;17.93;;
76115;SDS011;64847;45.778;12.802;2024-01-30T00:20:03;22.13;;;19.07;;
76115;SDS011;64847;45.778;12.802;2024-01-30T00:22:31;22.57;;;19.77;;
76115;SDS011;64847;45.778;12.802;2024-01-30T00:24:57;20.60;;;18.50;;
76115;SDS011;64847;45.778;12.802;2024-01-30T00:27:22;24.90;;;21.37;;
76115;SDS011;64847;45.778;12.802;2024-01-30T00:29:47;25.13;;;20.93;;
76115;SDS011;64847;45.778;12.802;2024-01-30T00:32:13;32.17;;;25.53;;
76115;SDS011;64847;45.778;12.802;2024-01-30T00:34:38;44.83;;;32.47;;
76115;SDS011;64847;45.778;12.802;2024-01-30T00:37:04;52.93;;;37.17;;
76115;SDS011;64847;45.778;12.802;2024-01-30T00:39:29;55.57;;;37.17;;
76115;SDS011;64847;45.778;12.802;2024-01-30T00:41:55;52.27;;;36.23;;
76115;SDS011;64847;45.778;12.802;2024-01-30T00:44:20;47.33;;;33.87;;
76115;SDS011;64847;45.778;12.802;2024-01-30T00:46:45;42.83;;;31.13;;
76115;SDS011;64847;45.778;12.802;2024-01-30T00:49:11;44.33;;;31.07;;
76115;SDS011;64847;45.778;12.802;2024-01-30T00:51:36;39.50;;;28.77;;
76115;SDS011;64847;45.778;12.802;2024-01-30T00:54:02;33.40;;;27.13;;
76115;SDS011;64847;45.778;12.802;2024-01-30T00:56:28;35.27;;;26.93;;
76115;SDS011;64847;45.778;12.802;2024-01-30T00:58:53;35.13;;;25.90;;
76115;SDS011;64847;45.778;12.802;2024-01-30T01:01:19;30.23;;;24.63;;
76115;SDS011;64847;45.778;12.802;2024-01-30T01:03:44;32.07;;;23.53;;
76115;SDS011;64847;45.778;12.802;2024-01-30T01:06:10;27.73;;;23.13;;
76115;SDS011;64847;45.778;12.802;2024-01-30T01:08:35;27.60;;;24.43;;
76115;SDS011;64847;45.778;12.802;2024-01-30T01:11:01;27.43;;;22.40;;
76115;SDS011;64847;45.778;12.802;2024-01-30T01:13:26;26.50;;;22.70;;
76115;SDS011;64847;45.778;12.802;2024-01-30T01:15:52;28.83;;;22.87;;
76115;SDS011;64847;45.778;12.802;2024-01-30T01:18:17;24.23;;;20.90;;
76115;SDS011;64847;45.778;12.802;2024-01-30T01:20:43;22.00;;;19.57;;
76115;SDS011;64847;45.778;12.802;2024-01-30T01:23:08;24.10;;;21.50;;
76115;SDS011;64847;45.778;12.802;2024-01-30T01:25:33;24.17;;;19.60;;
76115;SDS011;64847;45.778;12.802;2024-01-30T01:27:59;24.00;;;21.13;;
76115;SDS011;64847;45.778;12.802;2024-01-30T01:30:26;23.07;;;20.27;;
76115;SDS011;64847;45.778;12.802;2024-01-30T01:32:51;24.23;;;20.43;;
76115;SDS011;64847;45.778;12.802;2024-01-30T01:35:23;25.70;;;21.77;;
76115;SDS011;64847;45.778;12.802;2024-01-30T01:37:50;24.27;;;20.47;;
76115;SDS011;64847;45.778;12.802;2024-01-30T01:40:26;24.23;;;20.30;;
76115;SDS011;64847;45.778;12.802;2024-01-30T01:42:53;21.90;;;19.50;;
76115;SDS011;64847;45.778;12.802;2024-01-30T01:45:19;22.73;;;19.30;;
76115;SDS011;64847;45.778;12.802;2024-01-30T01:47:46;24.33;;;20.77;;
76115;SDS011;64847;45.778;12.802;2024-01-30T01:50:13;21.10;;;18.33;;
76115;SDS011;64847;45.778;12.802;2024-01-30T01:52:43;23.37;;;19.87;;
76115;SDS011;64847;45.778;12.802;2024-01-30T01:55:09;22.93;;;19.53;;
76115;SDS011;64847;45.778;12.802;2024-01-30T01:57:35;22.77;;;18.97;;
76115;SDS011;64847;45.778;12.802;2024-01-30T02:00:01;22.20;;;19.37;;
76115;SDS011;64847;45.778;12.802;2024-01-30T02:02:29;20.97;;;18.73;;
76115;SDS011;64847;45.778;12.802;2024-01-30T02:04:55;22.60;;;19.27;;
76115;SDS011;64847;45.778;12.802;2024-01-30T02:07:24;20.33;;;17.97;;
76115;SDS011;64847;45.778;12.802;2024-01-30T02:09:49;21.33;;;18.40;;
76115;SDS011;64847;45.778;12.802;2024-01-30T02:12:14;21.93;;;18.93;;
76115;SDS011;64847;45.778;12.802;2024-01-30T02:14:47;21.93;;;18.47;;
76115;SDS011;64847;45.778;12.802;2024-01-30T02:17:13;21.40;;;18.77;;
76115;SDS011;64847;45.778;12.802;2024-01-30T02:19:39;24.33;;;19.17;;
76115;SDS011;64847;45.778;12.802;2024-01-30T02:22:05;24.53;;;19.70;;
76115;SDS011;64847;45.778;12.802;2024-01-30T02:24:30;22.10;;;19.23;;
76115;SDS011;64847;45.778;12.802;2024-01-30T02:26:56;23.07;;;19.40;;
76115;SDS011;64847;45.778;12.802;2024-01-30T02:29:21;24.50;;;20.97;;
76115;SDS011;64847;45.778;12.802;2024-01-30T02:31:47;22.27;;;19.23;;
76115;SDS011;64847;45.778;12.802;2024-01-30T02:34:13;23.20;;;19.47;;
76115;SDS011;64847;45.778;12.802;2024-01-30T02:36:38;23.50;;;20.07;;
76115;SDS011;64847;45.778;12.802;2024-01-30T02:39:07;21.47;;;19.13;;
76115;SDS011;64847;45.778;12.802;2024-01-30T02:41:33;23.53;;;19.73;;
76115;SDS011;64847;45.778;12.802;2024-01-30T02:43:58;21.73;;;19.00;;
76115;SDS011;64847;45.778;12.802;2024-01-30T02:46:23;20.97;;;18.57;;
76115;SDS011;64847;45.778;12.802;2024-01-30T02:48:49;23.93;;;18.50;;
76115;SDS011;64847;45.778;12.802;2024-01-30T02:51:14;22.90;;;19.43;;
76115;SDS011;64847;45.778;12.802;2024-01-30T02:53:40;21.83;;;18.17;;
76115;SDS011;64847;45.778;12.802;2024-01-30T02:56:05;20.87;;;18.13;;
76115;SDS011;64847;45.778;12.802;2024-01-30T02:58:34;20.53;;;17.83;;
76115;SDS011;64847;45.778;12.802;2024-01-30T03:01:00;20.17;;;16.93;;
76115;SDS011;64847;45.778;12.802;2024-01-30T03:03:25;19.00;;;16.53;;
76115;SDS011;64847;45.778;12.802;2024-01-30T03:05:51;18.47;;;16.57;;
76115;SDS011;64847;45.778;12.802;2024-01-30T03:08:16;19.30;;;17.30;;
76115;SDS011;64847;45.778;12.802;2024-01-30T03:10:41;19.97;;;17.43;;
76115;SDS011;64847;45.778;12.802;2024-01-30T03:13:07;21.43;;;17.57;;
76115;SDS011;64847;45.778;12.802;2024-01-30T03:15:32;20.33;;;17.10;;
76115;SDS011;64847;45.778;12.802;2024-01-30T03:17:57;17.50;;;15.40;;
76115;SDS011;64847;45.778;12.802;2024-01-30T03:20:23;20.40;;;16.63;;
76115;SDS011;64847;45.778;12.802;2024-01-30T03:22:49;21.13;;;16.60;;
76115;SDS011;64847;45.778;12.802;2024-01-30T03:25:14;19.47;;;17.33;;
76115;SDS011;64847;45.778;12.802;2024-01-30T03:27:40;20.40;;;16.00;;
76115;SDS011;64847;45.778;12.802;2024-01-30T03:30:06;18.10;;;15.47;;
76115;SDS011;64847;45.778;12.802;2024-01-30T03:32:31;19.47;;;16.30;;
76115;SDS011;64847;45.778;12.802;2024-01-30T03:34:57;18.47;;;16.57;;
76115;SDS011;64847;45.778;12.802;2024-01-30T03:37:23;17.40;;;15.43;;
76115;SDS011;64847;45.778;12.802;2024-01-30T03:39:48;17.63;;;15.03;;
76115;SDS011;64847;45.778;12.802;2024-01-30T03:42:14;17.73;;;15.47;;
76115;SDS011;64847;45.778;12.802;2024-01-30T03:44:39;17.30;;;15.47;;
76115;SDS011;64847;45.778;12.802;2024-01-30T03:47:05;17.63;;;15.33;;
76115;SDS011;64847;45.778;12.802;2024-01-30T03:49:30;16.27;;;14.57;;
76115;SDS011;64847;45.778;12.802;2024-01-30T03:51:56;17.70;;;15.83;;
76115;SDS011;64847;45.778;12.802;2024-01-30T03:54:21;18.30;;;16.03;;
76115;SDS011;64847;45.778;12.802;2024-01-30T03:56:46;18.90;;;15.13;;
76115;SDS011;64847;45.778;12.802;2024-01-30T03:59:12;16.67;;;14.27;;
76115;SDS011;64847;45.778;12.802;2024-01-30T04:01:37;16.63;;;14.27;;
76115;SDS011;64847;45.778;12.802;2024-01-30T04:04:03;15.80;;;13.83;;
76115;SDS011;64847;45.778;12.802;2024-01-30T04:06:28;17.87;;;14.80;;
76115;SDS011;64847;45.778;12.802;2024-01-30T04:08:54;15.73;;;13.90;;
76115;SDS011;64847;45.778;12.802;2024-01-30T04:11:19;16.83;;;14.30;;
76115;SDS011;64847;45.778;12.802;2024-01-30T04:13:45;14.93;;;13.33;;
76115;SDS011;64847;45.778;12.802;2024-01-30T04:16:19;14.40;;;12.90;;
76115;SDS011;64847;45.778;12.802;2024-01-30T04:18:46;14.97;;;13.37;;
76115;SDS011;64847;45.778;12.802;2024-01-30T04:21:11;15.77;;;13.50;;
76115;SDS011;64847;45.778;12.802;2024-01-30T04:23:36;14.37;;;12.57;;
76115;SDS011;64847;45.778;12.802;2024-01-30T04:26:02;13.43;;;12.03;;
76115;SDS011;64847;45.778;12.802;2024-01-30T04:28:28;14.90;;;12.80;;
76115;SDS011;64847;45.778;12.802;2024-01-30T04:30:53;15.87;;;13.30;;
76115;SDS011;64847;45.778;12.802;2024-01-30T04:33:19;13.33;;;11.70;;
76115;SDS011;64847;45.778;12.802;2024-01-30T04:35:44;12.97;;;11.53;;
76115;SDS011;64847;45.778;12.802;2024-01-30T04:38:10;12.13;;;10.53;;
76115;SDS011;64847;45.778;12.802;2024-01-30T04:40:35;14.90;;;11.87;;
76115;SDS011;64847;45.778;12.802;2024-01-30T04:43:00;14.07;;;11.77;;
76115;SDS011;64847;45.778;12.802;2024-01-30T04:45:26;12.77;;;11.20;;
76115;SDS011;64847;45.778;12.802;2024-01-30T04:47:52;13.50;;;11.60;;
76115;SDS011;64847;45.778;12.802;2024-01-30T04:50:17;13.23;;;11.73;;
76115;SDS011;64847;45.778;12.802;2024-01-30T04:52:43;14.13;;;10.80;;
76115;SDS011;64847;45.778;12.802;2024-01-30T04:55:09;13.57;;;11.37;;
76115;SDS011;64847;45.778;12.802;2024-01-30T04:57:34;11.97;;;10.73;;
76115;SDS011;64847;45.778;12.802;2024-01-30T04:59:59;12.67;;;10.93;;
76115;SDS011;64847;45.778;12.802;2024-01-30T05:02:25;11.80;;;10.60;;
76115;SDS011;64847;45.778;12.802;2024-01-30T05:04:50;11.80;;;10.50;;
76115;SDS011;64847;45.778;12.802;2024-01-30T05:07:16;11.93;;;10.60;;
76115;SDS011;64847;45.778;12.802;2024-01-30T05:09:41;11.77;;;10.33;;
76115;SDS011;64847;45.778;12.802;2024-01-30T05:12:07;12.77;;;10.53;;
76115;SDS011;64847;45.778;12.802;2024-01-30T05:14:32;11.17;;;9.97;;
76115;SDS011;64847;45.778;12.802;2024-01-30T05:16:58;10.47;;;9.37;;
76115;SDS011;64847;45.778;12.802;2024-01-30T05:19:23;12.50;;;10.27;;
76115;SDS011;64847;45.778;12.802;2024-01-30T05:21:49;11.17;;;10.00;;
76115;SDS011;64847;45.778;12.802;2024-01-30T05:24:14;12.37;;;11.03;;
76115;SDS011;64847;45.778;12.802;2024-01-30T05:26:40;12.67;;;10.00;;
76115;SDS011;64847;45.778;12.802;2024-01-30T05:29:06;11.77;;;9.87;;
76115;SDS011;64847;45.778;12.802;2024-01-30T05:31:32;11.67;;;10.47;;
76115;SDS011;64847;45.778;12.802;2024-01-30T05:33:59;10.40;;;9.40;;
76115;SDS011;64847;45.778;12.802;2024-01-30T05:36:25;10.63;;;9.50;;
76115;SDS011;64847;45.778;12.802;2024-01-30T05:38:50;10.50;;;9.40;;
76115;SDS011;64847;45.778;12.802;2024-01-30T05:41:16;11.50;;;10.27;;
76115;SDS011;64847;45.778;12.802;2024-01-30T05:43:41;11.30;;;9.37;;
76115;SDS011;64847;45.778;12.802;2024-01-30T05:46:07;10.93;;;9.83;;
76115;SDS011;64847;45.778;12.802;2024-01-30T05:48:32;11.03;;;9.70;;
76115;SDS011;64847;45.778;12.802;2024-01-30T05:51:00;10.50;;;9.50;;
76115;SDS011;64847;45.778;12.802;2024-01-30T05:53:25;10.80;;;9.70;;
76115;SDS011;64847;45.778;12.802;2024-01-30T05:55:51;11.27;;;10.07;;
76115;SDS011;64847;45.778;12.802;2024-01-30T05:58:16;11.53;;;10.33;;
76115;SDS011;64847;45.778;12.802;2024-01-30T06:00:42;10.87;;;9.77;;
76115;SDS011;64847;45.778;12.802;2024-01-30T06:03:07;11.47;;;10.17;;
76115;SDS011;64847;45.778;12.802;2024-01-30T06:05:33;11.97;;;10.73;;
76115;SDS011;64847;45.778;12.802;2024-01-30T06:07:59;10.97;;;9.80;;
76115;SDS011;64847;45.778;12.802;2024-01-30T06:10:24;11.70;;;10.10;;
76115;SDS011;64847;45.778;12.802;2024-01-30T06:12:50;11.07;;;9.53;;
76115;SDS011;64847;45.778;12.802;2024-01-30T06:15:15;11.03;;;9.93;;
76115;SDS011;64847;45.778;12.802;2024-01-30T06:17:41;11.37;;;10.17;;
76115;SDS011;64847;45.778;12.802;2024-01-30T06:20:06;10.40;;;8.97;;
76115;SDS011;64847;45.778;12.802;2024-01-30T06:22:32;10.07;;;9.07;;
76115;SDS011;64847;45.778;12.802;2024-01-30T06:24:57;9.90;;;8.90;;
76115;SDS011;64847;45.778;12.802;2024-01-30T06:27:23;10.27;;;9.17;;
76115;SDS011;64847;45.778;12.802;2024-01-30T06:29:48;11.73;;;9.00;;
76115;SDS011;64847;45.778;12.802;2024-01-30T06:32:13;9.43;;;8.53;;
76115;SDS011;64847;45.778;12.802;2024-01-30T06:34:40;10.27;;;9.00;;
76115;SDS011;64847;45.778;12.802;2024-01-30T06:37:06;10.07;;;8.60;;
76115;SDS011;64847;45.778;12.802;2024-01-30T06:39:31;9.97;;;8.23;;
76115;SDS011;64847;45.778;12.802;2024-01-30T06:41:57;9.97;;;8.90;;
76115;SDS011;64847;45.778;12.802;2024-01-30T06:44:22;9.97;;;8.83;;
76115;SDS011;64847;45.778;12.802;2024-01-30T06:46:47;12.13;;;9.17;;
76115;SDS011;64847;45.778;12.802;2024-01-30T06:49:13;10.23;;;8.73;;
76115;SDS011;64847;45.778;12.802;2024-01-30T06:51:38;9.60;;;8.57;;
76115;SDS011;64847;45.778;12.802;2024-01-30T06:54:05;10.93;;;8.63;;
76115;SDS011;64847;45.778;12.802;2024-01-30T06:56:31;9.67;;;8.67;;
76115;SDS011;64847;45.778;12.802;2024-01-30T06:58:56;10.57;;;8.40;;
76115;SDS011;64847;45.778;12.802;2024-01-30T07:01:27;9.30;;;8.30;;
76115;SDS011;64847;45.778;12.802;2024-01-30T07:03:55;11.10;;;8.23;;
76115;SDS011;64847;45.778;12.802;2024-01-30T07:06:21;9.43;;;8.50;;
76115;SDS011;64847;45.778;12.802;2024-01-30T07:08:48;10.40;;;9.00;;
76115;SDS011;64847;45.778;12.802;2024-01-30T07:11:21;11.53;;;8.70;;
76115;SDS011;64847;45.778;12.802;2024-01-30T07:13:47;9.00;;;8.10;;
76115;SDS011;64847;45.778;12.802;2024-01-30T07:16:13;8.53;;;7.70;;
76115;SDS011;64847;45.778;12.802;2024-01-30T07:18:39;9.50;;;8.13;;
76115;SDS011;64847;45.778;12.802;2024-01-30T07:21:04;7.97;;;7.17;;
76115;SDS011;64847;45.778;12.802;2024-01-30T07:23:30;8.50;;;7.60;;
76115;SDS011;64847;45.778;12.802;2024-01-30T07:25:55;7.37;;;6.43;;
76115;SDS011;64847;45.778;12.802;2024-01-30T07:28:21;7.70;;;6.90;;
76115;SDS011;64847;45.778;12.802;2024-01-30T07:30:46;7.30;;;6.60;;
76115;SDS011;64847;45.778;12.802;2024-01-30T07:33:13;7.23;;;6.57;;
76115;SDS011;64847;45.778;12.802;2024-01-30T07:35:39;7.50;;;6.80;;
76115;SDS011;64847;45.778;12.802;2024-01-30T07:38:04;7.17;;;6.47;;
76115;SDS011;64847;45.778;12.802;2024-01-30T07:40:30;7.00;;;6.30;;
76115;SDS011;64847;45.778;12.802;2024-01-30T07:42:55;7.00;;;6.40;;
76115;SDS011;64847;45.778;12.802;2024-01-30T07:45:20;7.70;;;7.00;;
76115;SDS011;64847;45.778;12.802;2024-01-30T07:47:50;7.40;;;6.73;;
76115;SDS011;64847;45.778;12.802;2024-01-30T07:50:16;7.63;;;6.93;;
76115;SDS011;64847;45.778;12.802;2024-01-30T07:52:42;8.00;;;7.30;;
76115;SDS011;64847;45.778;12.802;2024-01-30T07:55:08;7.47;;;6.77;;
76115;SDS011;64847;45.778;12.802;2024-01-30T07:57:33;7.80;;;7.10;;
76115;SDS011;64847;45.778;12.802;2024-01-30T07:59:59;7.70;;;7.10;;
76115;SDS011;64847;45.778;12.802;2024-01-30T08:02:25;7.70;;;7.10;;
76115;SDS011;64847;45.778;12.802;2024-01-30T08:04:50;7.77;;;7.13;;
76115;SDS011;64847;45.778;12.802;2024-01-30T08:07:16;8.10;;;7.37;;
76115;SDS011;64847;45.778;12.802;2024-01-30T08:09:42;7.78;;;7.18;;
76115;SDS011;64847;45.778;12.802;2024-01-30T08:12:08;7.65;;;6.95;;
76115;SDS011;64847;45.778;12.802;2024-01-30T08:14:34;7.40;;;6.60;;
76115;SDS011;64847;45.778;12.802;2024-01-30T08:16:59;6.88;;;6.35;;
76115;SDS011;64847;45.778;12.802;2024-01-30T08:19:25;7.18;;;6.57;;
76115;SDS011;64847;45.778;12.802;2024-01-30T08:21:50;6.88;;;6.28;;
76115;SDS011;64847;45.778;12.802;2024-01-30T08:24:15;6.85;;;6.32;;
76115;SDS011;64847;45.778;12.802;2024-01-30T08:26:41;6.35;;;5.85;;
76115;SDS011;64847;45.778;12.802;2024-01-30T08:29:06;5.45;;;5.05;;
76115;SDS011;64847;45.778;12.802;2024-01-30T08:31:32;5.63;;;5.13;;
76115;SDS011;64847;45.778;12.802;2024-01-30T08:33:57;5.57;;;5.18;;
76115;SDS011;64847;45.778;12.802;2024-01-30T08:36:23;5.30;;;4.80;;
76115;SDS011;64847;45.778;12.802;2024-01-30T08:38:49;5.22;;;4.82;;
76115;SDS011;64847;45.778;12.802;2024-01-30T08:41:14;5.15;;;4.70;;
76115;SDS011;64847;45.778;12.802;2024-01-30T08:43:40;4.78;;;4.40;;
76115;SDS011;64847;45.778;12.802;2024-01-30T08:46:05;4.65;;;4.35;;
76115;SDS011;64847;45.778;12.802;2024-01-30T08:48:31;4.95;;;4.55;;
76115;SDS011;64847;45.778;12.802;2024-01-30T08:50:56;4.85;;;4.45;;
76115;SDS011;64847;45.778;12.802;2024-01-30T08:53:22;4.45;;;4.15;;
76115;SDS011;64847;45.778;12.802;2024-01-30T08:55:47;4.07;;;3.78;;
76115;SDS011;64847;45.778;12.802;2024-01-30T08:58:13;3.97;;;3.78;;
76115;SDS011;64847;45.778;12.802;2024-01-30T09:00:40;4.40;;;4.10;;
76115;SDS011;64847;45.778;12.802;2024-01-30T09:03:05;4.60;;;4.30;;
76115;SDS011;64847;45.778;12.802;2024-01-30T09:05:31;4.30;;;4.00;;
76115;SDS011;64847;45.778;12.802;2024-01-30T09:07:56;4.15;;;3.83;;
76115;SDS011;64847;45.778;12.802;2024-01-30T09:10:22;4.05;;;3.75;;
76115;SDS011;64847;45.778;12.802;2024-01-30T09:12:47;4.28;;;3.97;;
76115;SDS011;64847;45.778;12.802;2024-01-30T09:15:13;4.00;;;3.70;;
76115;SDS011;64847;45.778;12.802;2024-01-30T09:17:39;3.95;;;3.65;;
76115;SDS011;64847;45.778;12.802;2024-01-30T09:20:04;4.38;;;3.97;;
76115;SDS011;64847;45.778;12.802;2024-01-30T09:22:30;4.30;;;4.00;;
76115;SDS011;64847;45.778;12.802;2024-01-30T09:24:56;4.75;;;4.32;;
76115;SDS011;64847;45.778;12.802;2024-01-30T09:27:22;4.10;;;3.80;;
76115;SDS011;64847;45.778;12.802;2024-01-30T09:29:47;5.20;;;4.70;;
76115;SDS011;64847;45.778;12.802;2024-01-30T09:32:13;5.47;;;5.07;;
76115;SDS011;64847;45.778;12.802;2024-01-30T09:34:38;5.10;;;4.70;;
76115;SDS011;64847;45.778;12.802;2024-01-30T09:37:04;6.13;;;5.63;;
76115;SDS011;64847;45.778;12.802;2024-01-30T09:39:30;5.85;;;5.45;;
76115;SDS011;64847;45.778;12.802;2024-01-30T09:41:58;5.50;;;5.13;;
76115;SDS011;64847;45.778;12.802;2024-01-30T09:44:28;6.00;;;5.60;;
76115;SDS011;64847;45.778;12.802;2024-01-30T09:46:54;6.07;;;5.57;;
76115;SDS011;64847;45.778;12.802;2024-01-30T09:49:20;5.25;;;4.85;;
76115;SDS011;64847;45.778;12.802;2024-01-30T09:51:47;5.88;;;5.47;;
76115;SDS011;64847;45.778;12.802;2024-01-30T09:54:13;5.30;;;4.93;;
76115;SDS011;64847;45.778;12.802;2024-01-30T09:56:40;5.30;;;4.93;;
76115;SDS011;64847;45.778;12.802;2024-01-30T09:59:05;5.65;;;5.25;;
76115;SDS011;64847;45.778;12.802;2024-01-30T10:01:31;6.05;;;5.45;;
76115;SDS011;64847;45.778;12.802;2024-01-30T10:03:57;6.20;;;5.70;;
76115;SDS011;64847;45.778;12.802;2024-01-30T10:06:22;6.40;;;5.80;;
76115;SDS011;64847;45.778;12.802;2024-01-30T10:08:51;6.32;;;5.80;;
76115;SDS011;64847;45.778;12.802;2024-01-30T10:11:17;5.07;;;4.63;;
76115;SDS011;64847;45.778;12.802;2024-01-30T10:13:43;5.10;;;4.70;;
76115;SDS011;64847;45.778;12.802;2024-01-30T10:16:08;5.53;;;5.13;;
76115;SDS011;64847;45.778;12.802;2024-01-30T10:18:34;5.70;;;5.25;;
76115;SDS011;64847;45.778;12.802;2024-01-30T10:20:59;6.68;;;6.18;;
76115;SDS011;64847;45.778;12.802;2024-01-30T10:23:25;6.78;;;6.28;;
76115;SDS011;64847;45.778;12.802;2024-01-30T10:25:51;7.28;;;6.68;;
76115;SDS011;64847;45.778;12.802;2024-01-30T10:28:17;6.25;;;5.85;;
76115;SDS011;64847;45.778;12.802;2024-01-30T10:30:42;6.53;;;6.03;;
76115;SDS011;64847;45.778;12.802;2024-01-30T10:33:08;5.75;;;5.35;;
76115;SDS011;64847;45.778;12.802;2024-01-30T10:35:33;5.82;;;5.43;;
76115;SDS011;64847;45.778;12.802;2024-01-30T10:37:59;6.32;;;5.82;;
76115;SDS011;64847;45.778;12.802;2024-01-30T10:40:27;5.93;;;5.53;;
76115;SDS011;64847;45.778;12.802;2024-01-30T10:42:53;6.07;;;5.57;;
76115;SDS011;64847;45.778;12.802;2024-01-30T10:45:20;4.97;;;4.68;;
76115;SDS011;64847;45.778;12.802;2024-01-30T10:47:53;5.00;;;4.60;;
76115;SDS011;64847;45.778;12.802;2024-01-30T10:50:21;4.85;;;4.55;;
76115;SDS011;64847;45.778;12.802;2024-01-30T10:52:47;4.43;;;4.07;;
76115;SDS011;64847;45.778;12.802;2024-01-30T10:55:13;5.35;;;4.95;;
76115;SDS011;64847;45.778;12.802;2024-01-30T10:57:39;4.88;;;4.57;;
76115;SDS011;64847;45.778;12.802;2024-01-30T11:00:05;5.72;;;5.32;;
76115;SDS011;64847;45.778;12.802;2024-01-30T11:02:35;5.35;;;5.05;;
76115;SDS011;64847;45.778;12.802;2024-01-30T11:05:07;6.60;;;5.93;;
76115;SDS011;64847;45.778;12.802;2024-01-30T11:07:33;5.20;;;4.80;;
76115;SDS011;64847;45.778;12.802;2024-01-30T11:09:59;5.35;;;4.95;;
76115;SDS011;64847;45.778;12.802;2024-01-30T11:12:26;5.60;;;5.20;;
76115;SDS011;64847;45.778;12.802;2024-01-30T11:15:07;5.63;;;5.25;;
76115;SDS011;64847;45.778;12.802;2024-01-30T11:22:53;5.75;;;5.25;;
76115;SDS011;64847;45.778;12.802;2024-01-30T11:25:20;5.18;;;4.88;;
76115;SDS011;64847;45.778;12.802;2024-01-30T11:27:46;5.28;;;4.88;;
76115;SDS011;64847;45.778;12.802;2024-01-30T11:33:04;4.65;;;4.35;;
76115;SDS011;64847;45.778;12.802;2024-01-30T11:35:40;5.25;;;4.85;;
76115;SDS011;64847;45.778;12.802;2024-01-30T11:38:07;5.50;;;5.10;;
76115;SDS011;64847;45.778;12.802;2024-01-30T11:40:34;4.70;;;4.45;;
76115;SDS011;64847;45.778;12.802;2024-01-30T11:43:02;4.70;;;4.40;;
76115;SDS011;64847;45.778;12.802;2024-01-30T11:45:29;4.82;;;4.53;;
76115;SDS011;64847;45.778;12.802;2024-01-30T11:47:56;3.92;;;3.72;;
76115;SDS011;64847;45.778;12.802;2024-01-30T11:50:22;4.40;;;4.10;;
76115;SDS011;64847;45.778;12.802;2024-01-30T11:52:48;4.63;;;4.22;;
76115;SDS011;64847;45.778;12.802;2024-01-30T11:55:16;3.88;;;3.67;;
76115;SDS011;64847;45.778;12.802;2024-01-30T11:57:42;3.88;;;3.55;;
76115;SDS011;64847;45.778;12.802;2024-01-30T12:00:16;4.18;;;3.78;;
76115;SDS011;64847;45.778;12.802;2024-01-30T12:02:49;4.40;;;4.00;;
76115;SDS011;64847;45.778;12.802;2024-01-30T12:05:15;4.20;;;3.90;;
76115;SDS011;64847;45.778;12.802;2024-01-30T12:07:44;3.58;;;3.38;;
76115;SDS011;64847;45.778;12.802;2024-01-30T12:10:11;3.65;;;3.45;;
76115;SDS011;64847;45.778;12.802;2024-01-30T12:12:38;3.63;;;3.42;;
76115;SDS011;64847;45.778;12.802;2024-01-30T12:15:03;4.70;;;4.40;;
76115;SDS011;64847;45.778;12.802;2024-01-30T12:17:30;3.85;;;3.65;;
76115;SDS011;64847;45.778;12.802;2024-01-30T12:20:09;3.78;;;3.47;;
76115;SDS011;64847;45.778;12.802;2024-01-30T12:22:40;4.22;;;3.97;;
76115;SDS011;64847;45.778;12.802;2024-01-30T12:25:13;4.85;;;4.35;;
76115;SDS011;64847;45.778;12.802;2024-01-30T12:27:39;4.18;;;3.92;;
76115;SDS011;64847;45.778;12.802;2024-01-30T12:30:07;4.20;;;3.90;;
76115;SDS011;64847;45.778;12.802;2024-01-30T12:32:36;4.20;;;3.90;;
76115;SDS011;64847;45.778;12.802;2024-01-30T12:35:11;4.22;;;3.80;;
76115;SDS011;64847;45.778;12.802;2024-01-30T12:37:43;3.60;;;3.40;;
76115;SDS011;64847;45.778;12.802;2024-01-30T12:40:09;3.85;;;3.55;;
76115;SDS011;64847;45.778;12.802;2024-01-30T12:42:36;3.78;;;3.58;;
76115;SDS011;64847;45.778;12.802;2024-01-30T12:45:02;4.05;;;3.75;;
76115;SDS011;64847;45.778;12.802;2024-01-30T12:47:29;3.60;;;3.40;;
76115;SDS011;64847;45.778;12.802;2024-01-30T12:49:54;3.95;;;3.70;;
76115;SDS011;64847;45.778;12.802;2024-01-30T12:52:20;4.30;;;4.00;;
76115;SDS011;64847;45.778;12.802;2024-01-30T12:54:47;4.93;;;4.53;;
76115;SDS011;64847;45.778;12.802;2024-01-30T12:57:13;5.32;;;4.93;;
76115;SDS011;64847;45.778;12.802;2024-01-30T12:59:38;4.75;;;4.45;;
76115;SDS011;64847;45.778;12.802;2024-01-30T13:02:06;4.93;;;4.63;;
76115;SDS011;64847;45.778;12.802;2024-01-30T13:04:34;4.97;;;4.57;;
76115;SDS011;64847;45.778;12.802;2024-01-30T13:07:00;4.45;;;4.15;;
76115;SDS011;64847;45.778;12.802;2024-01-30T13:09:26;4.22;;;3.92;;
76115;SDS011;64847;45.778;12.802;2024-01-30T13:11:52;5.65;;;5.15;;
76115;SDS011;64847;45.778;12.802;2024-01-30T13:14:17;5.60;;;5.10;;
76115;SDS011;64847;45.778;12.802;2024-01-30T13:16:43;5.90;;;5.38;;
76115;SDS011;64847;45.778;12.802;2024-01-30T13:19:09;6.10;;;5.60;;
76115;SDS011;64847;45.778;12.802;2024-01-30T13:21:34;6.32;;;5.82;;
76115;SDS011;64847;45.778;12.802;2024-01-30T13:24:00;5.40;;;5.00;;
76115;SDS011;64847;45.778;12.802;2024-01-30T13:26:25;6.40;;;5.88;;
76115;SDS011;64847;45.778;12.802;2024-01-30T13:28:50;7.07;;;6.45;;
76115;SDS011;64847;45.778;12.802;2024-01-30T13:31:16;6.00;;;5.50;;
76115;SDS011;64847;45.778;12.802;2024-01-30T13:33:42;6.38;;;5.88;;
76115;SDS011;64847;45.778;12.802;2024-01-30T13:36:08;5.82;;;5.43;;
76115;SDS011;64847;45.778;12.802;2024-01-30T13:38:35;5.93;;;5.32;;
76115;SDS011;64847;45.778;12.802;2024-01-30T13:41:00;5.95;;;5.35;;
76115;SDS011;64847;45.778;12.802;2024-01-30T13:43:27;5.40;;;4.97;;
76115;SDS011;64847;45.778;12.802;2024-01-30T13:45:52;5.30;;;4.80;;
76115;SDS011;64847;45.778;12.802;2024-01-30T13:48:18;5.68;;;5.15;;
76115;SDS011;64847;45.778;12.802;2024-01-30T13:50:43;5.13;;;4.72;;
76115;SDS011;64847;45.778;12.802;2024-01-30T13:53:09;5.38;;;4.97;;
76115;SDS011;64847;45.778;12.802;2024-01-30T13:55:34;4.80;;;4.45;;
76115;SDS011;64847;45.778;12.802;2024-01-30T13:58:00;5.07;;;4.68;;
76115;SDS011;64847;45.778;12.802;2024-01-30T14:00:26;5.28;;;4.78;;
76115;SDS011;64847;45.778;12.802;2024-01-30T14:02:52;5.93;;;5.05;;
76115;SDS011;64847;45.778;12.802;2024-01-30T14:05:19;5.07;;;4.68;;
76115;SDS011;64847;45.778;12.802;2024-01-30T14:07:46;5.47;;;4.72;;
76115;SDS011;64847;45.778;12.802;2024-01-30T14:10:11;5.63;;;5.22;;
76115;SDS011;64847;45.778;12.802;2024-01-30T14:12:37;4.70;;;4.30;;
76115;SDS011;64847;45.778;12.802;2024-01-30T14:15:02;4.85;;;4.45;;
76115;SDS011;64847;45.778;12.802;2024-01-30T14:17:28;5.10;;;4.70;;
76115;SDS011;64847;45.778;12.802;2024-01-30T14:19:53;4.70;;;4.40;;
76115;SDS011;64847;45.778;12.802;2024-01-30T14:22:18;4.80;;;4.40;;
76115;SDS011;64847;45.778;12.802;2024-01-30T14:24:44;4.50;;;4.20;;